Le Roy, Kansas
Current Conditions -  °F | °C
As of 12:52 AM on Friday 28 Nov 2014 (Local Time) from KCNU Reporting Station
Clear Clear  
Wind Chill: 23°   Ceiling: Unl
Heat Index: 31°   Visibility: 10mi
Dew Point: 24°   Wind: 8mph
Humidity: 76%   Direction: 140°SE
Pressure: 30.22"   Gusts: NA
Location:  38.08°N, 95.63°W
Report Text: KCNU 280652Z AUTO 14007KT 10SM CLR M01/M04 A3022 RMK AO2 SLP239 T10061044
Loading
Personal Weather Stations






























Interactive Weather Map New forecast layout! Learn more

10-Day Weather Forecast

Advertisements
Track Severe Weather on mobile